Terminal Aerodrome Forecast
Issued by NWS Wakefield, VA

Home | Current Version | Previous Version | Text Only | Print | Product List | Glossary On
Versions: 1 2 3 4 5 6 7 8 9 10 11 12 13 14
000
FTUS41 KAKQ 061128
TAFSBY
TAF
KSBY 061128Z 0612/0712 06004KT P6SM OVC100
     FM061500 09010KT 5SM -RA BR OVC060
     FM061800 09011KT 1 1/2SM RA BR OVC012
     FM062100 06013G23KT 2SM RA BR OVC007
     FM070000 06012G20KT 3SM RA BR OVC005
     FM070500 02007KT 3SM BR OVC005=

USA.gov is the U.S. government's official web portal to all federal, state and local government web resources and services.